sensor_id;sensor_type;location;lat;lon;timestamp;P1;durP1;ratioP1;P2;durP2;ratioP2
83030;SDS011;72845;35.234;23.636;2023-12-29T00:01:16;3.90;;;2.13;;
83030;SDS011;72845;35.234;23.636;2023-12-29T00:03:43;3.88;;;2.20;;
83030;SDS011;72845;35.234;23.636;2023-12-29T00:06:27;4.32;;;2.00;;
83030;SDS011;72845;35.234;23.636;2023-12-29T00:09:11;3.65;;;1.88;;
83030;SDS011;72845;35.234;23.636;2023-12-29T00:11:38;4.13;;;2.20;;
83030;SDS011;72845;35.234;23.636;2023-12-29T00:14:03;3.28;;;2.00;;
83030;SDS011;72845;35.234;23.636;2023-12-29T00:16:29;4.07;;;2.20;;
83030;SDS011;72845;35.234;23.636;2023-12-29T00:18:54;5.05;;;2.00;;
83030;SDS011;72845;35.234;23.636;2023-12-29T00:21:20;4.38;;;1.90;;
83030;SDS011;72845;35.234;23.636;2023-12-29T00:23:46;2.90;;;1.98;;
83030;SDS011;72845;35.234;23.636;2023-12-29T00:26:12;4.85;;;2.00;;
83030;SDS011;72845;35.234;23.636;2023-12-29T00:28:38;3.70;;;1.90;;
83030;SDS011;72845;35.234;23.636;2023-12-29T00:31:06;3.95;;;2.05;;
83030;SDS011;72845;35.234;23.636;2023-12-29T00:33:31;5.00;;;2.20;;
83030;SDS011;72845;35.234;23.636;2023-12-29T00:35:57;2.90;;;1.80;;
83030;SDS011;72845;35.234;23.636;2023-12-29T00:38:25;3.30;;;1.88;;
83030;SDS011;72845;35.234;23.636;2023-12-29T00:40:51;3.30;;;2.15;;
83030;SDS011;72845;35.234;23.636;2023-12-29T00:43:17;3.38;;;1.92;;
83030;SDS011;72845;35.234;23.636;2023-12-29T00:45:43;4.85;;;2.30;;
83030;SDS011;72845;35.234;23.636;2023-12-29T00:48:08;6.88;;;2.83;;
83030;SDS011;72845;35.234;23.636;2023-12-29T00:50:34;2.88;;;1.98;;
83030;SDS011;72845;35.234;23.636;2023-12-29T00:53:00;3.92;;;2.15;;
83030;SDS011;72845;35.234;23.636;2023-12-29T00:55:26;6.00;;;2.97;;
83030;SDS011;72845;35.234;23.636;2023-12-29T00:57:51;4.43;;;2.80;;
83030;SDS011;72845;35.234;23.636;2023-12-29T01:00:17;4.40;;;2.88;;
83030;SDS011;72845;35.234;23.636;2023-12-29T01:02:42;6.35;;;2.90;;
83030;SDS011;72845;35.234;23.636;2023-12-29T01:05:08;5.05;;;2.47;;
83030;SDS011;72845;35.234;23.636;2023-12-29T01:07:34;4.40;;;2.70;;
83030;SDS011;72845;35.234;23.636;2023-12-29T01:09:59;6.45;;;2.70;;
83030;SDS011;72845;35.234;23.636;2023-12-29T01:12:26;4.53;;;2.60;;
83030;SDS011;72845;35.234;23.636;2023-12-29T01:14:52;6.18;;;2.60;;
83030;SDS011;72845;35.234;23.636;2023-12-29T01:17:18;4.95;;;2.80;;
83030;SDS011;72845;35.234;23.636;2023-12-29T01:19:44;4.57;;;2.63;;
83030;SDS011;72845;35.234;23.636;2023-12-29T01:22:09;5.30;;;2.60;;
83030;SDS011;72845;35.234;23.636;2023-12-29T01:24:35;6.72;;;2.88;;
83030;SDS011;72845;35.234;23.636;2023-12-29T01:27:00;3.30;;;2.30;;
83030;SDS011;72845;35.234;23.636;2023-12-29T01:29:29;3.72;;;2.65;;
83030;SDS011;72845;35.234;23.636;2023-12-29T01:31:55;4.07;;;2.15;;
83030;SDS011;72845;35.234;23.636;2023-12-29T01:34:20;7.05;;;2.55;;
83030;SDS011;72845;35.234;23.636;2023-12-29T01:36:46;7.07;;;2.58;;
83030;SDS011;72845;35.234;23.636;2023-12-29T01:39:13;5.00;;;2.72;;
83030;SDS011;72845;35.234;23.636;2023-12-29T01:41:39;4.80;;;2.38;;
83030;SDS011;72845;35.234;23.636;2023-12-29T01:44:22;3.83;;;2.88;;
83030;SDS011;72845;35.234;23.636;2023-12-29T01:46:49;5.88;;;2.90;;
83030;SDS011;72845;35.234;23.636;2023-12-29T01:49:15;6.95;;;3.20;;
83030;SDS011;72845;35.234;23.636;2023-12-29T01:51:42;4.93;;;2.97;;
83030;SDS011;72845;35.234;23.636;2023-12-29T01:54:08;5.13;;;2.95;;
83030;SDS011;72845;35.234;23.636;2023-12-29T01:56:35;5.50;;;3.00;;
83030;SDS011;72845;35.234;23.636;2023-12-29T01:59:01;6.18;;;3.25;;
83030;SDS011;72845;35.234;23.636;2023-12-29T02:01:27;6.63;;;2.58;;
83030;SDS011;72845;35.234;23.636;2023-12-29T02:03:53;2.95;;;2.45;;
83030;SDS011;72845;35.234;23.636;2023-12-29T02:06:19;3.63;;;2.20;;
83030;SDS011;72845;35.234;23.636;2023-12-29T02:08:45;5.45;;;2.53;;
83030;SDS011;72845;35.234;23.636;2023-12-29T02:11:10;6.07;;;2.83;;
83030;SDS011;72845;35.234;23.636;2023-12-29T02:13:36;5.47;;;3.03;;
83030;SDS011;72845;35.234;23.636;2023-12-29T02:16:09;4.63;;;2.90;;
83030;SDS011;72845;35.234;23.636;2023-12-29T02:18:36;6.22;;;2.22;;
83030;SDS011;72845;35.234;23.636;2023-12-29T02:21:02;6.03;;;2.42;;
83030;SDS011;72845;35.234;23.636;2023-12-29T02:23:28;7.10;;;3.08;;
83030;SDS011;72845;35.234;23.636;2023-12-29T02:26:13;6.93;;;2.55;;
83030;SDS011;72845;35.234;23.636;2023-12-29T02:28:43;5.75;;;3.35;;
83030;SDS011;72845;35.234;23.636;2023-12-29T02:31:10;3.83;;;2.50;;
83030;SDS011;72845;35.234;23.636;2023-12-29T02:33:40;7.18;;;3.13;;
83030;SDS011;72845;35.234;23.636;2023-12-29T02:36:06;5.32;;;2.75;;
83030;SDS011;72845;35.234;23.636;2023-12-29T02:38:32;5.22;;;2.90;;
83030;SDS011;72845;35.234;23.636;2023-12-29T02:40:59;5.65;;;3.33;;
83030;SDS011;72845;35.234;23.636;2023-12-29T02:43:25;6.03;;;3.28;;
83030;SDS011;72845;35.234;23.636;2023-12-29T02:45:50;5.40;;;3.35;;
83030;SDS011;72845;35.234;23.636;2023-12-29T02:48:16;5.88;;;3.33;;
83030;SDS011;72845;35.234;23.636;2023-12-29T02:50:42;4.07;;;2.70;;
83030;SDS011;72845;35.234;23.636;2023-12-29T02:53:08;5.07;;;2.97;;
83030;SDS011;72845;35.234;23.636;2023-12-29T02:55:33;8.43;;;3.50;;
83030;SDS011;72845;35.234;23.636;2023-12-29T02:57:59;6.60;;;3.50;;
83030;SDS011;72845;35.234;23.636;2023-12-29T03:00:25;5.60;;;2.95;;
83030;SDS011;72845;35.234;23.636;2023-12-29T03:02:50;5.63;;;2.97;;
83030;SDS011;72845;35.234;23.636;2023-12-29T03:05:16;4.55;;;2.95;;
83030;SDS011;72845;35.234;23.636;2023-12-29T03:07:42;5.50;;;2.80;;
83030;SDS011;72845;35.234;23.636;2023-12-29T03:10:07;4.00;;;3.08;;
83030;SDS011;72845;35.234;23.636;2023-12-29T03:12:33;3.85;;;2.47;;
83030;SDS011;72845;35.234;23.636;2023-12-29T03:14:59;4.80;;;2.65;;
83030;SDS011;72845;35.234;23.636;2023-12-29T03:17:25;7.22;;;2.90;;
83030;SDS011;72845;35.234;23.636;2023-12-29T03:19:51;5.93;;;2.92;;
83030;SDS011;72845;35.234;23.636;2023-12-29T03:22:17;8.13;;;2.80;;
83030;SDS011;72845;35.234;23.636;2023-12-29T03:24:43;3.55;;;2.88;;
83030;SDS011;72845;35.234;23.636;2023-12-29T03:27:09;5.15;;;2.55;;
83030;SDS011;72845;35.234;23.636;2023-12-29T03:29:35;5.75;;;2.60;;
83030;SDS011;72845;35.234;23.636;2023-12-29T03:32:00;4.70;;;2.83;;
83030;SDS011;72845;35.234;23.636;2023-12-29T03:34:26;3.40;;;2.30;;
83030;SDS011;72845;35.234;23.636;2023-12-29T03:36:51;4.90;;;2.65;;
83030;SDS011;72845;35.234;23.636;2023-12-29T03:39:17;4.72;;;2.72;;
83030;SDS011;72845;35.234;23.636;2023-12-29T03:41:43;3.33;;;2.17;;
83030;SDS011;72845;35.234;23.636;2023-12-29T03:44:09;4.93;;;2.70;;
83030;SDS011;72845;35.234;23.636;2023-12-29T03:46:35;3.90;;;2.45;;
83030;SDS011;72845;35.234;23.636;2023-12-29T03:49:01;4.03;;;2.22;;
83030;SDS011;72845;35.234;23.636;2023-12-29T03:51:27;5.45;;;2.42;;
83030;SDS011;72845;35.234;23.636;2023-12-29T03:53:52;3.70;;;2.25;;
83030;SDS011;72845;35.234;23.636;2023-12-29T03:56:18;5.07;;;2.20;;
83030;SDS011;72845;35.234;23.636;2023-12-29T03:58:44;4.35;;;2.33;;
83030;SDS011;72845;35.234;23.636;2023-12-29T04:01:10;6.35;;;2.85;;
83030;SDS011;72845;35.234;23.636;2023-12-29T04:03:37;3.53;;;1.98;;
83030;SDS011;72845;35.234;23.636;2023-12-29T04:06:02;4.97;;;2.33;;
83030;SDS011;72845;35.234;23.636;2023-12-29T04:08:28;6.70;;;2.40;;
83030;SDS011;72845;35.234;23.636;2023-12-29T04:10:53;6.85;;;2.30;;
83030;SDS011;72845;35.234;23.636;2023-12-29T04:13:19;2.85;;;1.90;;
83030;SDS011;72845;35.234;23.636;2023-12-29T04:15:45;12.88;;;2.40;;
83030;SDS011;72845;35.234;23.636;2023-12-29T04:18:11;4.82;;;2.00;;
83030;SDS011;72845;35.234;23.636;2023-12-29T04:20:36;7.82;;;2.22;;
83030;SDS011;72845;35.234;23.636;2023-12-29T04:23:02;4.20;;;1.73;;
83030;SDS011;72845;35.234;23.636;2023-12-29T04:25:28;4.50;;;2.22;;
83030;SDS011;72845;35.234;23.636;2023-12-29T04:27:53;5.03;;;2.05;;
83030;SDS011;72845;35.234;23.636;2023-12-29T04:30:19;2.92;;;1.80;;
83030;SDS011;72845;35.234;23.636;2023-12-29T04:32:44;4.18;;;1.98;;
83030;SDS011;72845;35.234;23.636;2023-12-29T04:35:10;4.70;;;2.00;;
83030;SDS011;72845;35.234;23.636;2023-12-29T04:37:41;3.08;;;2.10;;
83030;SDS011;72845;35.234;23.636;2023-12-29T04:40:07;6.25;;;2.40;;
83030;SDS011;72845;35.234;23.636;2023-12-29T04:42:32;3.05;;;1.92;;
83030;SDS011;72845;35.234;23.636;2023-12-29T04:44:58;5.20;;;2.55;;
83030;SDS011;72845;35.234;23.636;2023-12-29T04:47:23;7.13;;;3.30;;
83030;SDS011;72845;35.234;23.636;2023-12-29T04:49:49;6.75;;;2.65;;
83030;SDS011;72845;35.234;23.636;2023-12-29T04:52:15;4.88;;;2.40;;
83030;SDS011;72845;35.234;23.636;2023-12-29T04:54:40;4.97;;;2.20;;
83030;SDS011;72845;35.234;23.636;2023-12-29T04:57:06;3.72;;;2.10;;
83030;SDS011;72845;35.234;23.636;2023-12-29T04:59:31;3.15;;;1.85;;
83030;SDS011;72845;35.234;23.636;2023-12-29T05:01:58;3.63;;;1.90;;
83030;SDS011;72845;35.234;23.636;2023-12-29T05:04:23;5.57;;;2.28;;
83030;SDS011;72845;35.234;23.636;2023-12-29T05:06:49;3.72;;;2.20;;
83030;SDS011;72845;35.234;23.636;2023-12-29T05:09:15;6.00;;;2.10;;
83030;SDS011;72845;35.234;23.636;2023-12-29T05:11:40;3.75;;;2.05;;
83030;SDS011;72845;35.234;23.636;2023-12-29T05:14:06;4.90;;;2.30;;
83030;SDS011;72845;35.234;23.636;2023-12-29T05:16:32;4.40;;;2.15;;
83030;SDS011;72845;35.234;23.636;2023-12-29T05:18:57;6.32;;;2.40;;
83030;SDS011;72845;35.234;23.636;2023-12-29T05:21:23;2.67;;;1.80;;
83030;SDS011;72845;35.234;23.636;2023-12-29T05:23:49;4.00;;;2.20;;
83030;SDS011;72845;35.234;23.636;2023-12-29T05:26:15;4.18;;;2.08;;
83030;SDS011;72845;35.234;23.636;2023-12-29T05:28:41;4.10;;;2.17;;
83030;SDS011;72845;35.234;23.636;2023-12-29T05:31:06;4.38;;;2.10;;
83030;SDS011;72845;35.234;23.636;2023-12-29T05:33:32;3.38;;;1.90;;
83030;SDS011;72845;35.234;23.636;2023-12-29T05:35:58;2.83;;;2.10;;
83030;SDS011;72845;35.234;23.636;2023-12-29T05:38:25;3.63;;;2.28;;
83030;SDS011;72845;35.234;23.636;2023-12-29T05:40:50;5.05;;;2.30;;
83030;SDS011;72845;35.234;23.636;2023-12-29T05:43:17;3.55;;;2.28;;
83030;SDS011;72845;35.234;23.636;2023-12-29T05:45:43;8.80;;;2.22;;
83030;SDS011;72845;35.234;23.636;2023-12-29T05:48:08;5.57;;;2.45;;
83030;SDS011;72845;35.234;23.636;2023-12-29T05:50:34;4.53;;;2.15;;
83030;SDS011;72845;35.234;23.636;2023-12-29T05:53:00;7.05;;;2.42;;
83030;SDS011;72845;35.234;23.636;2023-12-29T05:55:25;3.90;;;2.20;;
83030;SDS011;72845;35.234;23.636;2023-12-29T05:57:52;4.40;;;2.28;;
83030;SDS011;72845;35.234;23.636;2023-12-29T06:00:17;6.93;;;2.97;;
83030;SDS011;72845;35.234;23.636;2023-12-29T06:02:43;4.47;;;2.22;;
83030;SDS011;72845;35.234;23.636;2023-12-29T06:05:12;5.07;;;2.72;;
83030;SDS011;72845;35.234;23.636;2023-12-29T06:07:38;9.68;;;2.90;;
83030;SDS011;72845;35.234;23.636;2023-12-29T06:10:04;5.47;;;2.20;;
83030;SDS011;72845;35.234;23.636;2023-12-29T06:12:30;4.60;;;1.95;;
83030;SDS011;72845;35.234;23.636;2023-12-29T06:14:55;5.95;;;2.67;;
83030;SDS011;72845;35.234;23.636;2023-12-29T06:17:21;6.60;;;2.63;;
83030;SDS011;72845;35.234;23.636;2023-12-29T06:19:47;6.28;;;2.45;;
83030;SDS011;72845;35.234;23.636;2023-12-29T06:22:12;6.07;;;2.58;;
83030;SDS011;72845;35.234;23.636;2023-12-29T06:24:42;4.25;;;2.38;;
83030;SDS011;72845;35.234;23.636;2023-12-29T06:27:08;3.90;;;2.40;;
83030;SDS011;72845;35.234;23.636;2023-12-29T06:29:34;4.20;;;2.38;;
83030;SDS011;72845;35.234;23.636;2023-12-29T06:31:59;6.68;;;2.50;;
83030;SDS011;72845;35.234;23.636;2023-12-29T06:34:25;5.07;;;2.42;;
83030;SDS011;72845;35.234;23.636;2023-12-29T06:36:51;4.38;;;2.17;;
83030;SDS011;72845;35.234;23.636;2023-12-29T06:39:17;4.90;;;2.30;;
83030;SDS011;72845;35.234;23.636;2023-12-29T06:41:42;4.85;;;2.55;;
83030;SDS011;72845;35.234;23.636;2023-12-29T06:44:08;6.22;;;2.40;;
83030;SDS011;72845;35.234;23.636;2023-12-29T06:46:33;4.20;;;2.33;;
83030;SDS011;72845;35.234;23.636;2023-12-29T06:49:17;5.18;;;2.42;;
83030;SDS011;72845;35.234;23.636;2023-12-29T06:51:43;11.05;;;3.17;;
83030;SDS011;72845;35.234;23.636;2023-12-29T06:54:09;18.23;;;3.40;;
83030;SDS011;72845;35.234;23.636;2023-12-29T06:56:34;16.17;;;3.78;;
83030;SDS011;72845;35.234;23.636;2023-12-29T06:59:00;6.45;;;2.40;;
83030;SDS011;72845;35.234;23.636;2023-12-29T07:01:26;5.15;;;2.15;;
83030;SDS011;72845;35.234;23.636;2023-12-29T07:03:51;5.80;;;2.40;;
83030;SDS011;72845;35.234;23.636;2023-12-29T07:06:17;9.95;;;2.33;;
83030;SDS011;72845;35.234;23.636;2023-12-29T07:08:43;5.50;;;1.95;;
83030;SDS011;72845;35.234;23.636;2023-12-29T07:11:09;6.68;;;2.47;;
83030;SDS011;72845;35.234;23.636;2023-12-29T07:13:35;3.80;;;2.08;;
83030;SDS011;72845;35.234;23.636;2023-12-29T07:16:01;7.05;;;2.75;;
83030;SDS011;72845;35.234;23.636;2023-12-29T07:18:27;7.75;;;2.70;;
83030;SDS011;72845;35.234;23.636;2023-12-29T07:20:52;4.35;;;1.83;;
83030;SDS011;72845;35.234;23.636;2023-12-29T07:23:18;3.08;;;1.85;;
83030;SDS011;72845;35.234;23.636;2023-12-29T07:26:02;5.38;;;2.20;;
83030;SDS011;72845;35.234;23.636;2023-12-29T07:28:28;5.30;;;2.22;;
83030;SDS011;72845;35.234;23.636;2023-12-29T07:30:54;10.23;;;2.78;;
83030;SDS011;72845;35.234;23.636;2023-12-29T07:40:21;5.00;;;2.40;;
83030;SDS011;72845;35.234;23.636;2023-12-29T07:42:48;6.63;;;2.60;;
83030;SDS011;72845;35.234;23.636;2023-12-29T07:45:16;4.75;;;2.15;;
83030;SDS011;72845;35.234;23.636;2023-12-29T07:47:41;5.03;;;2.60;;
83030;SDS011;72845;35.234;23.636;2023-12-29T07:50:07;6.55;;;2.10;;
83030;SDS011;72845;35.234;23.636;2023-12-29T07:52:33;5.72;;;2.08;;
83030;SDS011;72845;35.234;23.636;2023-12-29T07:54:58;5.65;;;2.15;;
83030;SDS011;72845;35.234;23.636;2023-12-29T07:57:24;6.38;;;2.25;;
83030;SDS011;72845;35.234;23.636;2023-12-29T07:59:50;5.20;;;2.05;;
83030;SDS011;72845;35.234;23.636;2023-12-29T08:02:15;6.38;;;2.30;;
83030;SDS011;72845;35.234;23.636;2023-12-29T08:04:42;4.45;;;2.13;;
83030;SDS011;72845;35.234;23.636;2023-12-29T08:07:07;3.80;;;2.22;;
83030;SDS011;72845;35.234;23.636;2023-12-29T08:09:33;4.88;;;2.20;;
83030;SDS011;72845;35.234;23.636;2023-12-29T08:11:58;5.28;;;2.00;;
83030;SDS011;72845;35.234;23.636;2023-12-29T08:14:24;4.03;;;2.22;;
83030;SDS011;72845;35.234;23.636;2023-12-29T08:16:50;5.45;;;2.20;;
83030;SDS011;72845;35.234;23.636;2023-12-29T08:19:15;12.10;;;2.60;;
83030;SDS011;72845;35.234;23.636;2023-12-29T08:21:41;4.50;;;2.50;;
83030;SDS011;72845;35.234;23.636;2023-12-29T08:24:07;4.75;;;3.28;;
83030;SDS011;72845;35.234;23.636;2023-12-29T08:26:32;10.73;;;2.95;;
83030;SDS011;72845;35.234;23.636;2023-12-29T08:28:58;8.75;;;2.20;;
83030;SDS011;72845;35.234;23.636;2023-12-29T08:31:23;4.40;;;2.25;;
83030;SDS011;72845;35.234;23.636;2023-12-29T08:33:51;6.00;;;2.42;;
83030;SDS011;72845;35.234;23.636;2023-12-29T08:36:20;3.72;;;2.28;;
83030;SDS011;72845;35.234;23.636;2023-12-29T08:38:46;9.65;;;2.35;;
83030;SDS011;72845;35.234;23.636;2023-12-29T08:41:15;5.20;;;2.53;;
83030;SDS011;72845;35.234;23.636;2023-12-29T08:43:40;8.45;;;2.00;;
83030;SDS011;72845;35.234;23.636;2023-12-29T08:46:06;5.22;;;2.28;;
83030;SDS011;72845;35.234;23.636;2023-12-29T08:48:31;6.82;;;2.17;;
83030;SDS011;72845;35.234;23.636;2023-12-29T08:50:57;5.38;;;2.10;;
83030;SDS011;72845;35.234;23.636;2023-12-29T08:53:23;3.83;;;1.80;;
83030;SDS011;72845;35.234;23.636;2023-12-29T10:59:32;5.97;;;2.10;;
83030;SDS011;72845;35.234;23.636;2023-12-29T11:02:00;5.63;;;2.17;;
83030;SDS011;72845;35.234;23.636;2023-12-29T11:04:45;3.80;;;1.63;;
83030;SDS011;72845;35.234;23.636;2023-12-29T11:07:11;4.22;;;1.83;;
83030;SDS011;72845;35.234;23.636;2023-12-29T11:09:37;4.22;;;1.90;;
83030;SDS011;72845;35.234;23.636;2023-12-29T11:12:03;3.28;;;1.85;;
83030;SDS011;72845;35.234;23.636;2023-12-29T11:14:29;5.65;;;2.00;;
83030;SDS011;72845;35.234;23.636;2023-12-29T11:16:56;5.40;;;2.25;;
83030;SDS011;72845;35.234;23.636;2023-12-29T11:19:22;4.13;;;1.90;;
83030;SDS011;72845;35.234;23.636;2023-12-29T11:22:05;9.35;;;2.10;;
83030;SDS011;72845;35.234;23.636;2023-12-29T11:24:33;4.30;;;2.20;;
83030;SDS011;72845;35.234;23.636;2023-12-29T11:26:59;8.20;;;2.45;;
83030;SDS011;72845;35.234;23.636;2023-12-29T11:29:25;6.30;;;2.03;;
83030;SDS011;72845;35.234;23.636;2023-12-29T11:31:50;5.10;;;1.77;;
83030;SDS011;72845;35.234;23.636;2023-12-29T11:34:29;9.02;;;2.40;;
83030;SDS011;72845;35.234;23.636;2023-12-29T11:37:02;5.32;;;1.88;;
83030;SDS011;72845;35.234;23.636;2023-12-29T11:39:38;4.25;;;1.90;;
83030;SDS011;72845;35.234;23.636;2023-12-29T11:42:07;5.80;;;2.03;;
83030;SDS011;72845;35.234;23.636;2023-12-29T11:44:37;6.18;;;2.03;;
83030;SDS011;72845;35.234;23.636;2023-12-29T11:47:03;5.25;;;1.75;;
83030;SDS011;72845;35.234;23.636;2023-12-29T11:50:02;4.53;;;1.83;;
83030;SDS011;72845;35.234;23.636;2023-12-29T11:52:37;6.00;;;2.30;;
83030;SDS011;72845;35.234;23.636;2023-12-29T11:55:13;5.35;;;2.25;;
83030;SDS011;72845;35.234;23.636;2023-12-29T11:57:48;6.57;;;2.13;;
83030;SDS011;72845;35.234;23.636;2023-12-29T12:00:14;5.95;;;2.10;;
83030;SDS011;72845;35.234;23.636;2023-12-29T12:02:41;8.30;;;2.60;;
83030;SDS011;72845;35.234;23.636;2023-12-29T12:05:08;3.65;;;2.00;;
83030;SDS011;72845;35.234;23.636;2023-12-29T12:12:45;5.65;;;1.88;;
83030;SDS011;72845;35.234;23.636;2023-12-29T12:18:10;4.93;;;2.10;;
83030;SDS011;72845;35.234;23.636;2023-12-29T12:20:36;5.57;;;2.30;;
83030;SDS011;72845;35.234;23.636;2023-12-29T12:23:03;8.00;;;2.42;;
83030;SDS011;72845;35.234;23.636;2023-12-29T12:25:30;3.97;;;1.90;;
83030;SDS011;72845;35.234;23.636;2023-12-29T12:28:00;6.40;;;2.10;;
83030;SDS011;72845;35.234;23.636;2023-12-29T12:30:27;5.55;;;2.33;;
83030;SDS011;72845;35.234;23.636;2023-12-29T12:32:57;12.00;;;2.63;;
83030;SDS011;72845;35.234;23.636;2023-12-29T12:35:23;8.13;;;2.20;;
83030;SDS011;72845;35.234;23.636;2023-12-29T12:38:06;6.13;;;2.08;;
83030;SDS011;72845;35.234;23.636;2023-12-29T12:40:32;7.35;;;2.08;;
83030;SDS011;72845;35.234;23.636;2023-12-29T12:42:57;7.00;;;2.20;;
83030;SDS011;72845;35.234;23.636;2023-12-29T12:45:53;4.75;;;1.92;;
83030;SDS011;72845;35.234;23.636;2023-12-29T12:51:12;15.20;;;2.75;;
83030;SDS011;72845;35.234;23.636;2023-12-29T12:53:41;9.70;;;2.28;;
83030;SDS011;72845;35.234;23.636;2023-12-29T12:56:07;11.73;;;2.53;;
83030;SDS011;72845;35.234;23.636;2023-12-29T12:58:33;13.10;;;2.83;;
83030;SDS011;72845;35.234;23.636;2023-12-29T13:00:59;7.55;;;2.35;;
83030;SDS011;72845;35.234;23.636;2023-12-29T13:03:25;6.88;;;2.90;;
83030;SDS011;72845;35.234;23.636;2023-12-29T13:05:51;5.28;;;1.83;;
83030;SDS011;72845;35.234;23.636;2023-12-29T13:08:17;4.55;;;1.98;;
83030;SDS011;72845;35.234;23.636;2023-12-29T13:10:43;4.90;;;1.90;;
83030;SDS011;72845;35.234;23.636;2023-12-29T13:13:09;9.25;;;2.47;;
83030;SDS011;72845;35.234;23.636;2023-12-29T13:15:35;12.57;;;2.28;;
83030;SDS011;72845;35.234;23.636;2023-12-29T13:18:00;9.07;;;2.42;;
83030;SDS011;72845;35.234;23.636;2023-12-29T13:20:26;10.40;;;2.65;;
83030;SDS011;72845;35.234;23.636;2023-12-29T13:22:52;6.55;;;2.13;;
83030;SDS011;72845;35.234;23.636;2023-12-29T13:25:20;5.95;;;2.40;;
83030;SDS011;72845;35.234;23.636;2023-12-29T13:27:48;6.22;;;2.17;;
83030;SDS011;72845;35.234;23.636;2023-12-29T13:30:16;5.53;;;2.40;;
83030;SDS011;72845;35.234;23.636;2023-12-29T13:32:42;6.82;;;1.83;;
83030;SDS011;72845;35.234;23.636;2023-12-29T13:35:31;5.45;;;2.25;;
83030;SDS011;72845;35.234;23.636;2023-12-29T13:43:34;6.13;;;1.92;;
83030;SDS011;72845;35.234;23.636;2023-12-29T13:46:02;4.22;;;1.88;;
83030;SDS011;72845;35.234;23.636;2023-12-29T13:48:28;14.18;;;2.30;;
83030;SDS011;72845;35.234;23.636;2023-12-29T13:50:55;4.78;;;2.58;;
83030;SDS011;72845;35.234;23.636;2023-12-29T13:53:21;8.93;;;2.40;;
83030;SDS011;72845;35.234;23.636;2023-12-29T13:55:47;4.07;;;2.00;;
83030;SDS011;72845;35.234;23.636;2023-12-29T13:58:13;35.33;;;6.03;;
83030;SDS011;72845;35.234;23.636;2023-12-29T14:00:40;4.10;;;1.80;;
83030;SDS011;72845;35.234;23.636;2023-12-29T14:03:06;6.07;;;2.08;;
83030;SDS011;72845;35.234;23.636;2023-12-29T14:05:35;4.60;;;2.28;;
83030;SDS011;72845;35.234;23.636;2023-12-29T14:10:31;29.13;;;3.20;;
83030;SDS011;72845;35.234;23.636;2023-12-29T14:13:12;5.03;;;2.40;;
83030;SDS011;72845;35.234;23.636;2023-12-29T14:15:39;17.42;;;2.78;;
83030;SDS011;72845;35.234;23.636;2023-12-29T14:21:27;25.13;;;4.15;;
83030;SDS011;72845;35.234;23.636;2023-12-29T14:23:57;26.25;;;3.78;;
83030;SDS011;72845;35.234;23.636;2023-12-29T14:26:24;15.38;;;3.25;;
83030;SDS011;72845;35.234;23.636;2023-12-29T14:29:11;11.40;;;2.70;;
83030;SDS011;72845;35.234;23.636;2023-12-29T14:31:39;9.75;;;2.38;;
83030;SDS011;72845;35.234;23.636;2023-12-29T14:34:05;9.10;;;2.08;;
83030;SDS011;72845;35.234;23.636;2023-12-29T14:36:31;10.43;;;2.15;;
83030;SDS011;72845;35.234;23.636;2023-12-29T14:38:57;10.68;;;2.72;;
83030;SDS011;72845;35.234;23.636;2023-12-29T14:41:23;11.48;;;2.40;;
83030;SDS011;72845;35.234;23.636;2023-12-29T14:43:50;6.32;;;2.33;;
83030;SDS011;72845;35.234;23.636;2023-12-29T14:46:15;4.93;;;2.20;;
83030;SDS011;72845;35.234;23.636;2023-12-29T14:48:41;5.50;;;2.00;;
83030;SDS011;72845;35.234;23.636;2023-12-29T14:51:07;5.05;;;1.98;;
83030;SDS011;72845;35.234;23.636;2023-12-29T14:53:32;12.38;;;2.47;;
83030;SDS011;72845;35.234;23.636;2023-12-29T14:55:59;5.35;;;2.25;;
83030;SDS011;72845;35.234;23.636;2023-12-29T14:58:24;10.98;;;2.08;;
83030;SDS011;72845;35.234;23.636;2023-12-29T15:00:50;4.93;;;2.50;;
83030;SDS011;72845;35.234;23.636;2023-12-29T15:03:15;7.85;;;2.33;;
83030;SDS011;72845;35.234;23.636;2023-12-29T15:05:45;6.35;;;2.47;;
83030;SDS011;72845;35.234;23.636;2023-12-29T15:08:11;4.88;;;2.22;;
83030;SDS011;72845;35.234;23.636;2023-12-29T15:10:37;8.05;;;2.83;;
83030;SDS011;72845;35.234;23.636;2023-12-29T15:13:03;9.98;;;3.25;;
83030;SDS011;72845;35.234;23.636;2023-12-29T15:15:29;10.20;;;2.67;;
83030;SDS011;72845;35.234;23.636;2023-12-29T15:17:55;3.50;;;1.98;;
83030;SDS011;72845;35.234;23.636;2023-12-29T15:20:20;5.38;;;2.60;;
83030;SDS011;72845;35.234;23.636;2023-12-29T15:22:47;4.05;;;2.13;;
83030;SDS011;72845;35.234;23.636;2023-12-29T15:25:14;5.38;;;2.08;;
83030;SDS011;72845;35.234;23.636;2023-12-29T15:27:39;6.50;;;2.28;;
83030;SDS011;72845;35.234;23.636;2023-12-29T15:30:05;4.65;;;2.53;;
83030;SDS011;72845;35.234;23.636;2023-12-29T15:32:32;7.32;;;2.30;;
83030;SDS011;72845;35.234;23.636;2023-12-29T15:34:58;4.85;;;2.20;;
83030;SDS011;72845;35.234;23.636;2023-12-29T15:37:23;9.82;;;2.53;;
83030;SDS011;72845;35.234;23.636;2023-12-29T15:39:49;6.28;;;2.42;;
83030;SDS011;72845;35.234;23.636;2023-12-29T15:42:15;4.90;;;2.50;;
83030;SDS011;72845;35.234;23.636;2023-12-29T15:44:40;6.20;;;2.40;;
83030;SDS011;72845;35.234;23.636;2023-12-29T15:47:06;8.63;;;2.53;;
83030;SDS011;72845;35.234;23.636;2023-12-29T15:49:32;8.02;;;3.35;;
83030;SDS011;72845;35.234;23.636;2023-12-29T15:51:58;10.30;;;2.42;;
83030;SDS011;72845;35.234;23.636;2023-12-29T15:54:23;5.03;;;2.30;;
83030;SDS011;72845;35.234;23.636;2023-12-29T15:56:49;6.53;;;2.60;;
83030;SDS011;72845;35.234;23.636;2023-12-29T15:59:15;6.13;;;2.70;;
83030;SDS011;72845;35.234;23.636;2023-12-29T16:01:41;5.05;;;1.90;;
83030;SDS011;72845;35.234;23.636;2023-12-29T16:04:06;5.95;;;2.63;;
83030;SDS011;72845;35.234;23.636;2023-12-29T16:06:32;6.68;;;2.35;;
83030;SDS011;72845;35.234;23.636;2023-12-29T16:08:58;4.82;;;2.40;;
83030;SDS011;72845;35.234;23.636;2023-12-29T16:11:24;5.90;;;2.42;;
83030;SDS011;72845;35.234;23.636;2023-12-29T16:13:51;9.48;;;2.55;;
83030;SDS011;72845;35.234;23.636;2023-12-29T16:16:17;7.53;;;2.47;;
83030;SDS011;72845;35.234;23.636;2023-12-29T16:18:43;5.05;;;2.45;;
83030;SDS011;72845;35.234;23.636;2023-12-29T16:21:10;4.78;;;2.38;;
83030;SDS011;72845;35.234;23.636;2023-12-29T16:23:36;4.47;;;2.42;;
83030;SDS011;72845;35.234;23.636;2023-12-29T16:26:08;5.15;;;2.83;;
83030;SDS011;72845;35.234;23.636;2023-12-29T16:28:34;4.93;;;2.30;;
83030;SDS011;72845;35.234;23.636;2023-12-29T16:31:06;8.48;;;2.80;;
83030;SDS011;72845;35.234;23.636;2023-12-29T16:33:35;7.75;;;2.90;;
83030;SDS011;72845;35.234;23.636;2023-12-29T16:36:14;6.57;;;3.03;;
83030;SDS011;72845;35.234;23.636;2023-12-29T16:38:49;6.32;;;2.90;;
83030;SDS011;72845;35.234;23.636;2023-12-29T16:41:16;8.02;;;3.50;;
83030;SDS011;72845;35.234;23.636;2023-12-29T16:43:42;8.65;;;4.00;;
83030;SDS011;72845;35.234;23.636;2023-12-29T16:46:08;8.63;;;3.95;;
83030;SDS011;72845;35.234;23.636;2023-12-29T16:48:34;9.05;;;4.93;;
83030;SDS011;72845;35.234;23.636;2023-12-29T16:51:00;10.10;;;4.82;;
83030;SDS011;72845;35.234;23.636;2023-12-29T16:53:26;11.30;;;4.70;;
83030;SDS011;72845;35.234;23.636;2023-12-29T16:55:51;9.23;;;5.10;;
83030;SDS011;72845;35.234;23.636;2023-12-29T16:58:17;11.52;;;6.70;;
83030;SDS011;72845;35.234;23.636;2023-12-29T17:00:49;11.02;;;5.97;;
83030;SDS011;72845;35.234;23.636;2023-12-29T17:03:18;9.90;;;5.35;;
83030;SDS011;72845;35.234;23.636;2023-12-29T17:05:44;9.02;;;5.18;;